sensor_id;sensor_type;location;lat;lon;timestamp;temperature;humidity
52103;DHT22;38101;53.126;6.878;2022-12-07T00:00:53;3.30;99.90
52103;DHT22;38101;53.126;6.878;2022-12-07T00:03:19;3.20;99.90
52103;DHT22;38101;53.126;6.878;2022-12-07T00:05:44;3.20;99.90
52103;DHT22;38101;53.126;6.878;2022-12-07T00:08:10;3.20;99.90
52103;DHT22;38101;53.126;6.878;2022-12-07T00:10:36;3.20;99.90
52103;DHT22;38101;53.126;6.878;2022-12-07T00:13:01;3.20;99.90
52103;DHT22;38101;53.126;6.878;2022-12-07T00:15:27;3.20;99.90
52103;DHT22;38101;53.126;6.878;2022-12-07T00:17:52;3.30;99.90
52103;DHT22;38101;53.126;6.878;2022-12-07T00:20:18;3.30;99.90
52103;DHT22;38101;53.126;6.878;2022-12-07T00:22:44;3.40;99.90
52103;DHT22;38101;53.126;6.878;2022-12-07T00:25:09;3.50;99.90
52103;DHT22;38101;53.126;6.878;2022-12-07T00:27:35;3.60;99.90
52103;DHT22;38101;53.126;6.878;2022-12-07T00:30:01;3.60;99.90
52103;DHT22;38101;53.126;6.878;2022-12-07T00:32:27;3.70;99.90
52103;DHT22;38101;53.126;6.878;2022-12-07T00:34:52;3.70;99.90
52103;DHT22;38101;53.126;6.878;2022-12-07T00:37:18;3.70;99.90
52103;DHT22;38101;53.126;6.878;2022-12-07T00:39:45;3.70;99.90
52103;DHT22;38101;53.126;6.878;2022-12-07T00:42:11;3.60;99.90
52103;DHT22;38101;53.126;6.878;2022-12-07T00:44:37;3.60;99.90
52103;DHT22;38101;53.126;6.878;2022-12-07T00:47:02;3.60;99.90
52103;DHT22;38101;53.126;6.878;2022-12-07T00:49:28;3.50;99.90
52103;DHT22;38101;53.126;6.878;2022-12-07T00:51:54;3.50;99.90
52103;DHT22;38101;53.126;6.878;2022-12-07T00:54:19;3.40;99.90
52103;DHT22;38101;53.126;6.878;2022-12-07T00:56:45;3.40;99.90
52103;DHT22;38101;53.126;6.878;2022-12-07T00:59:14;3.40;99.90
52103;DHT22;38101;53.126;6.878;2022-12-07T01:01:40;3.40;99.90
52103;DHT22;38101;53.126;6.878;2022-12-07T01:04:06;3.40;99.90
52103;DHT22;38101;53.126;6.878;2022-12-07T01:06:32;3.40;99.90
52103;DHT22;38101;53.126;6.878;2022-12-07T01:08:58;3.40;99.90
52103;DHT22;38101;53.126;6.878;2022-12-07T01:11:27;3.40;99.90
52103;DHT22;38101;53.126;6.878;2022-12-07T01:13:54;3.50;99.90
52103;DHT22;38101;53.126;6.878;2022-12-07T01:16:21;3.50;99.90
52103;DHT22;38101;53.126;6.878;2022-12-07T01:18:49;3.60;99.90
52103;DHT22;38101;53.126;6.878;2022-12-07T01:21:18;3.60;99.90
52103;DHT22;38101;53.126;6.878;2022-12-07T01:23:46;3.70;99.90
52103;DHT22;38101;53.126;6.878;2022-12-07T01:26:14;3.70;99.90
52103;DHT22;38101;53.126;6.878;2022-12-07T01:28:40;3.70;99.90
52103;DHT22;38101;53.126;6.878;2022-12-07T01:31:08;3.80;99.90
52103;DHT22;38101;53.126;6.878;2022-12-07T01:33:37;3.80;99.90
52103;DHT22;38101;53.126;6.878;2022-12-07T01:36:08;3.80;99.90
52103;DHT22;38101;53.126;6.878;2022-12-07T01:38:38;3.80;99.90
52103;DHT22;38101;53.126;6.878;2022-12-07T01:41:04;3.80;99.90
52103;DHT22;38101;53.126;6.878;2022-12-07T01:43:32;3.70;99.90
52103;DHT22;38101;53.126;6.878;2022-12-07T01:45:58;3.70;99.90
52103;DHT22;38101;53.126;6.878;2022-12-07T01:48:28;3.70;99.90
52103;DHT22;38101;53.126;6.878;2022-12-07T01:51:00;3.70;99.90
52103;DHT22;38101;53.126;6.878;2022-12-07T01:53:28;3.70;99.90
52103;DHT22;38101;53.126;6.878;2022-12-07T01:55:56;3.60;99.90
52103;DHT22;38101;53.126;6.878;2022-12-07T01:58:22;3.60;99.90
52103;DHT22;38101;53.126;6.878;2022-12-07T02:00:49;3.60;99.90
52103;DHT22;38101;53.126;6.878;2022-12-07T02:03:24;3.60;99.90
52103;DHT22;38101;53.126;6.878;2022-12-07T02:05:51;3.50;99.90
52103;DHT22;38101;53.126;6.878;2022-12-07T02:08:18;3.60;99.90
52103;DHT22;38101;53.126;6.878;2022-12-07T02:10:45;3.80;99.90
52103;DHT22;38101;53.126;6.878;2022-12-07T02:13:17;3.90;99.90
52103;DHT22;38101;53.126;6.878;2022-12-07T02:16:03;4.00;99.90
52103;DHT22;38101;53.126;6.878;2022-12-07T02:32:51;4.10;99.90
52103;DHT22;38101;53.126;6.878;2022-12-07T02:41:10;4.00;99.90
52103;DHT22;38101;53.126;6.878;2022-12-07T02:43:57;3.90;99.90
52103;DHT22;38101;53.126;6.878;2022-12-07T02:46:31;3.90;99.90
52103;DHT22;38101;53.126;6.878;2022-12-07T02:48:58;3.80;99.90
52103;DHT22;38101;53.126;6.878;2022-12-07T02:51:25;3.70;99.90
52103;DHT22;38101;53.126;6.878;2022-12-07T02:53:54;3.70;99.90
52103;DHT22;38101;53.126;6.878;2022-12-07T03:10:27;3.40;99.90
52103;DHT22;38101;53.126;6.878;2022-12-07T03:18:07;3.50;99.90
52103;DHT22;38101;53.126;6.878;2022-12-07T03:20:35;3.50;99.90
52103;DHT22;38101;53.126;6.878;2022-12-07T03:23:05;3.50;99.90
52103;DHT22;38101;53.126;6.878;2022-12-07T03:25:32;3.50;99.90
52103;DHT22;38101;53.126;6.878;2022-12-07T03:28:02;3.60;99.90
52103;DHT22;38101;53.126;6.878;2022-12-07T03:33:13;3.60;99.90
52103;DHT22;38101;53.126;6.878;2022-12-07T03:35:45;3.60;99.90
52103;DHT22;38101;53.126;6.878;2022-12-07T03:38:22;3.60;99.90
52103;DHT22;38101;53.126;6.878;2022-12-07T03:43:18;3.60;99.90
52103;DHT22;38101;53.126;6.878;2022-12-07T03:48:37;3.60;99.90
52103;DHT22;38101;53.126;6.878;2022-12-07T03:51:36;3.60;99.90
52103;DHT22;38101;53.126;6.878;2022-12-07T03:54:18;3.60;99.90
52103;DHT22;38101;53.126;6.878;2022-12-07T03:56:46;3.60;99.90
52103;DHT22;38101;53.126;6.878;2022-12-07T03:59:13;3.50;99.90
52103;DHT22;38101;53.126;6.878;2022-12-07T04:01:42;3.60;99.90
52103;DHT22;38101;53.126;6.878;2022-12-07T04:04:08;3.60;99.90
52103;DHT22;38101;53.126;6.878;2022-12-07T04:06:33;3.60;99.90
52103;DHT22;38101;53.126;6.878;2022-12-07T04:08:59;3.70;99.90
52103;DHT22;38101;53.126;6.878;2022-12-07T04:11:25;3.70;99.90
52103;DHT22;38101;53.126;6.878;2022-12-07T04:13:50;3.80;99.90
52103;DHT22;38101;53.126;6.878;2022-12-07T04:16:34;3.80;99.90
52103;DHT22;38101;53.126;6.878;2022-12-07T04:19:00;3.90;99.90
52103;DHT22;38101;53.126;6.878;2022-12-07T04:21:26;3.90;99.90
52103;DHT22;38101;53.126;6.878;2022-12-07T04:23:51;3.90;99.90
52103;DHT22;38101;53.126;6.878;2022-12-07T04:26:17;3.90;99.90
52103;DHT22;38101;53.126;6.878;2022-12-07T04:28:42;3.90;99.90
52103;DHT22;38101;53.126;6.878;2022-12-07T04:31:09;3.80;99.90
52103;DHT22;38101;53.126;6.878;2022-12-07T04:33:35;3.90;99.90
52103;DHT22;38101;53.126;6.878;2022-12-07T04:36:01;3.90;99.90
52103;DHT22;38101;53.126;6.878;2022-12-07T04:38:26;3.80;99.90
52103;DHT22;38101;53.126;6.878;2022-12-07T04:40:52;3.80;99.90
52103;DHT22;38101;53.126;6.878;2022-12-07T04:43:17;3.70;99.90
52103;DHT22;38101;53.126;6.878;2022-12-07T04:45:49;3.70;99.90
52103;DHT22;38101;53.126;6.878;2022-12-07T04:48:16;3.60;99.90
52103;DHT22;38101;53.126;6.878;2022-12-07T04:50:42;3.60;99.90
52103;DHT22;38101;53.126;6.878;2022-12-07T04:53:07;3.50;99.90
52103;DHT22;38101;53.126;6.878;2022-12-07T04:55:33;3.50;99.90
52103;DHT22;38101;53.126;6.878;2022-12-07T04:57:58;3.50;99.90
52103;DHT22;38101;53.126;6.878;2022-12-07T05:00:24;3.50;99.90
52103;DHT22;38101;53.126;6.878;2022-12-07T05:02:50;3.50;99.90
52103;DHT22;38101;53.126;6.878;2022-12-07T05:05:15;3.50;99.90
52103;DHT22;38101;53.126;6.878;2022-12-07T05:07:41;3.60;99.90
52103;DHT22;38101;53.126;6.878;2022-12-07T05:10:07;3.60;99.90
52103;DHT22;38101;53.126;6.878;2022-12-07T05:12:33;3.70;99.90
52103;DHT22;38101;53.126;6.878;2022-12-07T05:14:58;3.70;99.90
52103;DHT22;38101;53.126;6.878;2022-12-07T05:17:24;3.70;99.90
52103;DHT22;38101;53.126;6.878;2022-12-07T05:19:50;3.80;99.90
52103;DHT22;38101;53.126;6.878;2022-12-07T05:22:15;3.80;99.90
52103;DHT22;38101;53.126;6.878;2022-12-07T05:24:41;3.90;99.90
52103;DHT22;38101;53.126;6.878;2022-12-07T05:27:06;3.80;99.90
52103;DHT22;38101;53.126;6.878;2022-12-07T05:29:32;3.80;99.90
52103;DHT22;38101;53.126;6.878;2022-12-07T05:31:58;3.70;99.90
52103;DHT22;38101;53.126;6.878;2022-12-07T05:34:23;3.70;99.90
52103;DHT22;38101;53.126;6.878;2022-12-07T05:36:49;3.70;99.90
52103;DHT22;38101;53.126;6.878;2022-12-07T05:39:15;3.70;99.90
52103;DHT22;38101;53.126;6.878;2022-12-07T05:41:41;3.70;99.90
52103;DHT22;38101;53.126;6.878;2022-12-07T05:44:25;3.60;99.90
52103;DHT22;38101;53.126;6.878;2022-12-07T05:46:51;3.50;99.90
52103;DHT22;38101;53.126;6.878;2022-12-07T05:49:16;3.50;99.90
52103;DHT22;38101;53.126;6.878;2022-12-07T05:51:42;3.50;99.90
52103;DHT22;38101;53.126;6.878;2022-12-07T05:54:08;3.40;99.90
52103;DHT22;38101;53.126;6.878;2022-12-07T05:56:34;3.30;99.90
52103;DHT22;38101;53.126;6.878;2022-12-07T05:58:59;3.30;99.90
52103;DHT22;38101;53.126;6.878;2022-12-07T06:01:43;3.20;99.90
52103;DHT22;38101;53.126;6.878;2022-12-07T06:04:09;3.10;99.90
52103;DHT22;38101;53.126;6.878;2022-12-07T06:06:35;3.00;99.90
52103;DHT22;38101;53.126;6.878;2022-12-07T06:09:01;2.90;99.90
52103;DHT22;38101;53.126;6.878;2022-12-07T06:11:27;2.90;99.90
52103;DHT22;38101;53.126;6.878;2022-12-07T06:14:11;2.90;99.90
52103;DHT22;38101;53.126;6.878;2022-12-07T06:16:37;2.80;99.90
52103;DHT22;38101;53.126;6.878;2022-12-07T06:19:03;2.80;99.90
52103;DHT22;38101;53.126;6.878;2022-12-07T06:21:29;2.70;99.90
52103;DHT22;38101;53.126;6.878;2022-12-07T06:23:54;2.70;99.90
52103;DHT22;38101;53.126;6.878;2022-12-07T06:26:20;2.70;99.90
52103;DHT22;38101;53.126;6.878;2022-12-07T06:28:46;2.70;99.90
52103;DHT22;38101;53.126;6.878;2022-12-07T06:31:12;2.70;99.90
52103;DHT22;38101;53.126;6.878;2022-12-07T06:33:37;2.70;99.90
52103;DHT22;38101;53.126;6.878;2022-12-07T06:36:03;2.70;99.90
52103;DHT22;38101;53.126;6.878;2022-12-07T06:38:29;2.70;99.90
52103;DHT22;38101;53.126;6.878;2022-12-07T06:40:54;2.70;99.90
52103;DHT22;38101;53.126;6.878;2022-12-07T06:43:20;2.70;99.90
52103;DHT22;38101;53.126;6.878;2022-12-07T06:45:46;2.70;99.90
52103;DHT22;38101;53.126;6.878;2022-12-07T06:48:12;2.70;99.90
52103;DHT22;38101;53.126;6.878;2022-12-07T06:50:37;2.90;99.90
52103;DHT22;38101;53.126;6.878;2022-12-07T06:53:03;2.80;99.90
52103;DHT22;38101;53.126;6.878;2022-12-07T06:55:28;2.80;99.90
52103;DHT22;38101;53.126;6.878;2022-12-07T06:57:54;2.80;99.90
52103;DHT22;38101;53.126;6.878;2022-12-07T07:00:20;2.90;99.90
52103;DHT22;38101;53.126;6.878;2022-12-07T07:02:46;2.90;99.90
52103;DHT22;38101;53.126;6.878;2022-12-07T07:05:11;2.90;99.90
52103;DHT22;38101;53.126;6.878;2022-12-07T07:07:37;2.90;99.90
52103;DHT22;38101;53.126;6.878;2022-12-07T07:10:03;2.90;99.90
52103;DHT22;38101;53.126;6.878;2022-12-07T07:12:28;2.90;99.90
52103;DHT22;38101;53.126;6.878;2022-12-07T07:14:54;2.90;99.90
52103;DHT22;38101;53.126;6.878;2022-12-07T07:17:20;2.90;99.90
52103;DHT22;38101;53.126;6.878;2022-12-07T07:19:45;2.90;99.90
52103;DHT22;38101;53.126;6.878;2022-12-07T07:22:11;2.80;99.90
52103;DHT22;38101;53.126;6.878;2022-12-07T07:24:37;2.80;99.90
52103;DHT22;38101;53.126;6.878;2022-12-07T07:27:02;2.70;99.90
52103;DHT22;38101;53.126;6.878;2022-12-07T07:29:28;2.70;99.90
52103;DHT22;38101;53.126;6.878;2022-12-07T07:31:54;2.60;99.90
52103;DHT22;38101;53.126;6.878;2022-12-07T07:34:19;2.60;99.90
52103;DHT22;38101;53.126;6.878;2022-12-07T07:36:45;2.70;99.90
52103;DHT22;38101;53.126;6.878;2022-12-07T07:39:10;2.80;99.90
52103;DHT22;38101;53.126;6.878;2022-12-07T07:41:38;2.80;99.90
52103;DHT22;38101;53.126;6.878;2022-12-07T07:44:04;2.90;99.90
52103;DHT22;38101;53.126;6.878;2022-12-07T07:46:29;3.00;99.90
52103;DHT22;38101;53.126;6.878;2022-12-07T07:48:55;3.10;99.90
52103;DHT22;38101;53.126;6.878;2022-12-07T07:51:21;3.20;99.90
52103;DHT22;38101;53.126;6.878;2022-12-07T07:53:47;3.20;99.90
52103;DHT22;38101;53.126;6.878;2022-12-07T07:56:12;3.20;99.90
52103;DHT22;38101;53.126;6.878;2022-12-07T07:58:38;3.20;99.90
52103;DHT22;38101;53.126;6.878;2022-12-07T08:01:08;3.20;99.90
52103;DHT22;38101;53.126;6.878;2022-12-07T08:03:34;3.30;99.90
52103;DHT22;38101;53.126;6.878;2022-12-07T08:06:04;3.40;99.90
52103;DHT22;38101;53.126;6.878;2022-12-07T08:08:30;3.40;99.90
52103;DHT22;38101;53.126;6.878;2022-12-07T08:10:56;3.50;99.90
52103;DHT22;38101;53.126;6.878;2022-12-07T08:13:21;3.50;99.90
52103;DHT22;38101;53.126;6.878;2022-12-07T08:15:47;3.50;99.90
52103;DHT22;38101;53.126;6.878;2022-12-07T08:18:14;3.60;99.90
52103;DHT22;38101;53.126;6.878;2022-12-07T08:20:41;3.50;99.90
52103;DHT22;38101;53.126;6.878;2022-12-07T08:23:08;3.50;99.90
52103;DHT22;38101;53.126;6.878;2022-12-07T08:25:34;3.50;99.90
52103;DHT22;38101;53.126;6.878;2022-12-07T08:28:00;3.50;99.90
52103;DHT22;38101;53.126;6.878;2022-12-07T08:30:26;3.60;99.90
52103;DHT22;38101;53.126;6.878;2022-12-07T08:32:52;3.50;99.90
52103;DHT22;38101;53.126;6.878;2022-12-07T08:35:18;3.50;99.90
52103;DHT22;38101;53.126;6.878;2022-12-07T08:37:44;3.50;99.90
52103;DHT22;38101;53.126;6.878;2022-12-07T08:40:11;3.40;99.90
52103;DHT22;38101;53.126;6.878;2022-12-07T08:42:41;3.40;99.90
52103;DHT22;38101;53.126;6.878;2022-12-07T08:45:13;3.30;99.90
52103;DHT22;38101;53.126;6.878;2022-12-07T08:47:43;3.30;99.90
52103;DHT22;38101;53.126;6.878;2022-12-07T08:50:11;3.30;99.90
52103;DHT22;38101;53.126;6.878;2022-12-07T08:52:38;3.30;99.90
52103;DHT22;38101;53.126;6.878;2022-12-07T08:55:05;3.30;99.90
52103;DHT22;38101;53.126;6.878;2022-12-07T08:57:32;3.30;99.90
52103;DHT22;38101;53.126;6.878;2022-12-07T08:59:59;3.30;99.90
52103;DHT22;38101;53.126;6.878;2022-12-07T09:02:25;3.30;99.90
52103;DHT22;38101;53.126;6.878;2022-12-07T09:04:51;3.30;99.90
52103;DHT22;38101;53.126;6.878;2022-12-07T09:07:17;3.30;99.90
52103;DHT22;38101;53.126;6.878;2022-12-07T09:09:42;3.40;99.90
52103;DHT22;38101;53.126;6.878;2022-12-07T09:12:08;3.40;99.90
52103;DHT22;38101;53.126;6.878;2022-12-07T09:14:34;3.50;99.90
52103;DHT22;38101;53.126;6.878;2022-12-07T09:17:11;3.50;99.90
52103;DHT22;38101;53.126;6.878;2022-12-07T09:19:37;3.60;99.90
52103;DHT22;38101;53.126;6.878;2022-12-07T09:22:04;3.50;99.90
52103;DHT22;38101;53.126;6.878;2022-12-07T09:24:31;3.60;99.90
52103;DHT22;38101;53.126;6.878;2022-12-07T09:26:57;3.70;99.90
52103;DHT22;38101;53.126;6.878;2022-12-07T09:29:23;3.80;99.90
52103;DHT22;38101;53.126;6.878;2022-12-07T09:31:49;3.90;99.90
52103;DHT22;38101;53.126;6.878;2022-12-07T09:34:15;4.00;99.90
52103;DHT22;38101;53.126;6.878;2022-12-07T09:36:41;4.10;99.90
52103;DHT22;38101;53.126;6.878;2022-12-07T09:39:08;4.10;99.90
52103;DHT22;38101;53.126;6.878;2022-12-07T09:41:38;4.20;99.90
52103;DHT22;38101;53.126;6.878;2022-12-07T09:44:17;4.20;99.90
52103;DHT22;38101;53.126;6.878;2022-12-07T09:46:45;4.30;99.90
52103;DHT22;38101;53.126;6.878;2022-12-07T09:49:21;4.30;99.90
52103;DHT22;38101;53.126;6.878;2022-12-07T09:52:47;4.40;99.90
52103;DHT22;38101;53.126;6.878;2022-12-07T09:54:50;4.40;99.90
52103;DHT22;38101;53.126;6.878;2022-12-07T09:57:16;4.50;99.90
52103;DHT22;38101;53.126;6.878;2022-12-07T09:59:42;4.60;99.90
52103;DHT22;38101;53.126;6.878;2022-12-07T10:02:32;4.70;99.90
52103;DHT22;38101;53.126;6.878;2022-12-07T10:04:59;4.80;99.90
52103;DHT22;38101;53.126;6.878;2022-12-07T10:07:25;4.80;99.90
52103;DHT22;38101;53.126;6.878;2022-12-07T10:09:50;4.90;99.90
52103;DHT22;38101;53.126;6.878;2022-12-07T10:12:16;4.90;99.90
52103;DHT22;38101;53.126;6.878;2022-12-07T10:14:55;4.90;99.90
52103;DHT22;38101;53.126;6.878;2022-12-07T10:23:07;4.90;99.90
52103;DHT22;38101;53.126;6.878;2022-12-07T10:25:39;4.90;99.90
52103;DHT22;38101;53.126;6.878;2022-12-07T10:28:15;5.00;99.90
52103;DHT22;38101;53.126;6.878;2022-12-07T10:30:52;5.00;99.90
52103;DHT22;38101;53.126;6.878;2022-12-07T10:33:32;5.10;99.90
52103;DHT22;38101;53.126;6.878;2022-12-07T10:35:58;5.10;99.90
52103;DHT22;38101;53.126;6.878;2022-12-07T10:38:26;5.10;99.90
52103;DHT22;38101;53.126;6.878;2022-12-07T10:41:06;5.20;99.90
52103;DHT22;38101;53.126;6.878;2022-12-07T10:43:32;5.20;99.90
52103;DHT22;38101;53.126;6.878;2022-12-07T10:48:48;5.10;99.90
52103;DHT22;38101;53.126;6.878;2022-12-07T10:54:12;5.20;99.90
52103;DHT22;38101;53.126;6.878;2022-12-07T10:56:58;5.20;99.90
52103;DHT22;38101;53.126;6.878;2022-12-07T11:02:25;5.20;99.90
52103;DHT22;38101;53.126;6.878;2022-12-07T11:05:11;5.20;99.90
52103;DHT22;38101;53.126;6.878;2022-12-07T11:10:22;5.20;99.90
52103;DHT22;38101;53.126;6.878;2022-12-07T11:13:28;5.20;99.90
52103;DHT22;38101;53.126;6.878;2022-12-07T11:15:59;5.30;99.90
52103;DHT22;38101;53.126;6.878;2022-12-07T11:21:44;5.30;99.90
52103;DHT22;38101;53.126;6.878;2022-12-07T11:24:17;5.30;99.90
52103;DHT22;38101;53.126;6.878;2022-12-07T11:30:14;5.50;99.90
52103;DHT22;38101;53.126;6.878;2022-12-07T11:32:57;5.50;99.90
52103;DHT22;38101;53.126;6.878;2022-12-07T11:38:17;5.50;99.90
52103;DHT22;38101;53.126;6.878;2022-12-07T11:40:48;5.40;99.90
52103;DHT22;38101;53.126;6.878;2022-12-07T11:43:34;5.40;99.90
52103;DHT22;38101;53.126;6.878;2022-12-07T11:46:14;5.40;99.90
52103;DHT22;38101;53.126;6.878;2022-12-07T11:48:49;5.40;99.90
52103;DHT22;38101;53.126;6.878;2022-12-07T11:51:19;5.40;99.90
52103;DHT22;38101;53.126;6.878;2022-12-07T11:53:54;5.40;99.90
52103;DHT22;38101;53.126;6.878;2022-12-07T11:56:25;5.40;99.90
52103;DHT22;38101;53.126;6.878;2022-12-07T11:59:17;5.40;99.90
52103;DHT22;38101;53.126;6.878;2022-12-07T12:02:03;5.40;99.90
52103;DHT22;38101;53.126;6.878;2022-12-07T12:07:18;5.40;99.90
52103;DHT22;38101;53.126;6.878;2022-12-07T12:09:51;5.30;99.90
52103;DHT22;38101;53.126;6.878;2022-12-07T12:20:55;5.20;99.90
52103;DHT22;38101;53.126;6.878;2022-12-07T12:23:39;5.10;99.90
52103;DHT22;38101;53.126;6.878;2022-12-07T12:26:12;5.10;99.90
52103;DHT22;38101;53.126;6.878;2022-12-07T12:28:48;5.10;99.90
52103;DHT22;38101;53.126;6.878;2022-12-07T12:34:02;5.00;99.90
52103;DHT22;38101;53.126;6.878;2022-12-07T12:39:09;4.80;99.90
52103;DHT22;38101;53.126;6.878;2022-12-07T12:46:59;4.70;99.90
52103;DHT22;38101;53.126;6.878;2022-12-07T12:49:33;4.70;99.90
52103;DHT22;38101;53.126;6.878;2022-12-07T12:57:32;5.10;99.90
52103;DHT22;38101;53.126;6.878;2022-12-07T13:00:00;5.30;99.90
52103;DHT22;38101;53.126;6.878;2022-12-07T13:02:29;5.60;99.90
52103;DHT22;38101;53.126;6.878;2022-12-07T13:10:32;6.20;99.90
52103;DHT22;38101;53.126;6.878;2022-12-07T13:15:43;6.00;99.90
52103;DHT22;38101;53.126;6.878;2022-12-07T13:26:23;5.70;99.90
52103;DHT22;38101;53.126;6.878;2022-12-07T13:31:52;5.50;99.90
52103;DHT22;38101;53.126;6.878;2022-12-07T13:34:38;5.50;99.90
52103;DHT22;38101;53.126;6.878;2022-12-07T13:39:53;5.40;99.90
52103;DHT22;38101;53.126;6.878;2022-12-07T13:42:31;5.50;99.90
52103;DHT22;38101;53.126;6.878;2022-12-07T13:44:58;5.40;99.90
52103;DHT22;38101;53.126;6.878;2022-12-07T13:47:44;5.30;99.90
52103;DHT22;38101;53.126;6.878;2022-12-07T13:50:23;5.20;99.90
52103;DHT22;38101;53.126;6.878;2022-12-07T13:52:49;5.20;99.90
52103;DHT22;38101;53.126;6.878;2022-12-07T13:55:16;5.10;99.90
52103;DHT22;38101;53.126;6.878;2022-12-07T13:57:45;5.10;99.90
52103;DHT22;38101;53.126;6.878;2022-12-07T14:00:23;5.10;99.90
52103;DHT22;38101;53.126;6.878;2022-12-07T14:03:01;5.20;99.90
52103;DHT22;38101;53.126;6.878;2022-12-07T14:05:29;5.20;99.90
52103;DHT22;38101;53.126;6.878;2022-12-07T14:08:04;5.10;99.90
52103;DHT22;38101;53.126;6.878;2022-12-07T14:10:33;5.10;99.90
52103;DHT22;38101;53.126;6.878;2022-12-07T14:13:01;5.00;99.90
52103;DHT22;38101;53.126;6.878;2022-12-07T14:15:30;5.00;99.90
52103;DHT22;38101;53.126;6.878;2022-12-07T14:17:57;5.00;99.90
52103;DHT22;38101;53.126;6.878;2022-12-07T14:20:49;4.90;99.90
52103;DHT22;38101;53.126;6.878;2022-12-07T14:23:24;4.80;99.90
52103;DHT22;38101;53.126;6.878;2022-12-07T14:25:52;4.60;99.90
52103;DHT22;38101;53.126;6.878;2022-12-07T14:28:32;4.60;99.90
52103;DHT22;38101;53.126;6.878;2022-12-07T14:30:59;4.60;99.90
52103;DHT22;38101;53.126;6.878;2022-12-07T14:33:25;4.50;99.90
52103;DHT22;38101;53.126;6.878;2022-12-07T14:35:52;4.40;99.90
52103;DHT22;38101;53.126;6.878;2022-12-07T14:38:21;4.30;99.90
52103;DHT22;38101;53.126;6.878;2022-12-07T14:40:48;4.20;99.90
52103;DHT22;38101;53.126;6.878;2022-12-07T14:43:16;4.20;99.90
52103;DHT22;38101;53.126;6.878;2022-12-07T14:45:42;4.10;99.90
52103;DHT22;38101;53.126;6.878;2022-12-07T14:48:11;4.00;99.90
52103;DHT22;38101;53.126;6.878;2022-12-07T14:50:49;4.00;99.90
52103;DHT22;38101;53.126;6.878;2022-12-07T14:53:23;3.90;99.90
52103;DHT22;38101;53.126;6.878;2022-12-07T14:55:52;3.80;99.90
52103;DHT22;38101;53.126;6.878;2022-12-07T14:58:18;3.80;99.90
52103;DHT22;38101;53.126;6.878;2022-12-07T15:00:44;3.70;99.90
52103;DHT22;38101;53.126;6.878;2022-12-07T15:03:10;3.70;99.90
52103;DHT22;38101;53.126;6.878;2022-12-07T15:05:38;3.70;99.90
52103;DHT22;38101;53.126;6.878;2022-12-07T15:08:04;3.70;99.90
52103;DHT22;38101;53.126;6.878;2022-12-07T15:10:33;3.70;99.90
52103;DHT22;38101;53.126;6.878;2022-12-07T15:13:02;3.70;99.90
52103;DHT22;38101;53.126;6.878;2022-12-07T15:15:47;3.70;99.90
52103;DHT22;38101;53.126;6.878;2022-12-07T15:18:14;3.80;99.90
52103;DHT22;38101;53.126;6.878;2022-12-07T15:20:40;3.70;99.90
52103;DHT22;38101;53.126;6.878;2022-12-07T15:23:06;3.80;99.90
52103;DHT22;38101;53.126;6.878;2022-12-07T15:25:32;3.80;99.90
52103;DHT22;38101;53.126;6.878;2022-12-07T15:27:57;3.80;99.90
52103;DHT22;38101;53.126;6.878;2022-12-07T15:30:23;3.90;99.90
52103;DHT22;38101;53.126;6.878;2022-12-07T15:32:52;4.00;99.90
52103;DHT22;38101;53.126;6.878;2022-12-07T15:35:18;4.00;99.90
52103;DHT22;38101;53.126;6.878;2022-12-07T15:37:44;4.00;99.90
52103;DHT22;38101;53.126;6.878;2022-12-07T15:40:10;4.00;99.90
52103;DHT22;38101;53.126;6.878;2022-12-07T15:42:37;4.00;99.90
52103;DHT22;38101;53.126;6.878;2022-12-07T15:45:04;3.90;99.90
52103;DHT22;38101;53.126;6.878;2022-12-07T15:47:35;3.90;99.90
52103;DHT22;38101;53.126;6.878;2022-12-07T15:50:05;3.90;99.90
52103;DHT22;38101;53.126;6.878;2022-12-07T15:52:31;3.80;99.90
52103;DHT22;38101;53.126;6.878;2022-12-07T15:54:57;3.80;99.90
52103;DHT22;38101;53.126;6.878;2022-12-07T15:57:26;3.80;99.90
52103;DHT22;38101;53.126;6.878;2022-12-07T15:59:51;3.80;99.90
52103;DHT22;38101;53.126;6.878;2022-12-07T16:02:17;3.80;99.90
52103;DHT22;38101;53.126;6.878;2022-12-07T16:04:43;3.80;99.90
52103;DHT22;38101;53.126;6.878;2022-12-07T16:07:09;3.70;99.90
52103;DHT22;38101;53.126;6.878;2022-12-07T16:09:37;3.70;99.90
52103;DHT22;38101;53.126;6.878;2022-12-07T16:12:03;3.70;99.90
52103;DHT22;38101;53.126;6.878;2022-12-07T16:14:28;3.70;99.90
52103;DHT22;38101;53.126;6.878;2022-12-07T16:16:54;3.70;99.90
52103;DHT22;38101;53.126;6.878;2022-12-07T16:19:20;3.60;99.90
52103;DHT22;38101;53.126;6.878;2022-12-07T16:21:45;3.60;99.90
52103;DHT22;38101;53.126;6.878;2022-12-07T16:24:11;3.60;99.90
52103;DHT22;38101;53.126;6.878;2022-12-07T16:26:38;3.60;99.90
52103;DHT22;38101;53.126;6.878;2022-12-07T16:29:04;3.50;99.90
52103;DHT22;38101;53.126;6.878;2022-12-07T16:31:29;3.50;99.90
52103;DHT22;38101;53.126;6.878;2022-12-07T16:33:57;3.50;99.90
52103;DHT22;38101;53.126;6.878;2022-12-07T16:36:24;3.50;99.90
52103;DHT22;38101;53.126;6.878;2022-12-07T16:38:51;3.50;99.90
52103;DHT22;38101;53.126;6.878;2022-12-07T16:41:17;3.40;99.90
52103;DHT22;38101;53.126;6.878;2022-12-07T16:43:43;3.40;99.90
52103;DHT22;38101;53.126;6.878;2022-12-07T16:46:09;3.40;99.90
52103;DHT22;38101;53.126;6.878;2022-12-07T16:48:36;3.30;99.90
52103;DHT22;38101;53.126;6.878;2022-12-07T16:51:07;3.30;99.90
52103;DHT22;38101;53.126;6.878;2022-12-07T16:53:35;3.40;99.90
52103;DHT22;38101;53.126;6.878;2022-12-07T16:56:01;3.30;99.90
52103;DHT22;38101;53.126;6.878;2022-12-07T16:58:27;3.30;99.90
52103;DHT22;38101;53.126;6.878;2022-12-07T17:00:52;3.40;99.90
52103;DHT22;38101;53.126;6.878;2022-12-07T17:03:18;3.30;99.90
52103;DHT22;38101;53.126;6.878;2022-12-07T17:05:45;3.40;99.90
52103;DHT22;38101;53.126;6.878;2022-12-07T17:08:12;3.40;99.90
52103;DHT22;38101;53.126;6.878;2022-12-07T17:10:41;3.50;99.90
52103;DHT22;38101;53.126;6.878;2022-12-07T17:13:08;3.60;99.90
52103;DHT22;38101;53.126;6.878;2022-12-07T17:16:01;3.70;99.90
52103;DHT22;38101;53.126;6.878;2022-12-07T17:18:30;3.70;99.90
52103;DHT22;38101;53.126;6.878;2022-12-07T17:21:05;3.70;99.90
52103;DHT22;38101;53.126;6.878;2022-12-07T17:23:31;3.70;99.90
52103;DHT22;38101;53.126;6.878;2022-12-07T17:26:04;3.70;99.90
52103;DHT22;38101;53.126;6.878;2022-12-07T17:28:30;3.70;99.90
52103;DHT22;38101;53.126;6.878;2022-12-07T17:30:56;3.60;99.90
52103;DHT22;38101;53.126;6.878;2022-12-07T17:33:22;3.60;99.90
52103;DHT22;38101;53.126;6.878;2022-12-07T17:35:48;3.50;99.90
52103;DHT22;38101;53.126;6.878;2022-12-07T17:38:13;3.50;99.90
52103;DHT22;38101;53.126;6.878;2022-12-07T17:40:39;3.50;99.90
52103;DHT22;38101;53.126;6.878;2022-12-07T17:43:05;3.50;99.90
52103;DHT22;38101;53.126;6.878;2022-12-07T17:45:30;3.50;99.90
52103;DHT22;38101;53.126;6.878;2022-12-07T17:47:56;3.50;99.90
52103;DHT22;38101;53.126;6.878;2022-12-07T17:50:22;3.40;99.90
52103;DHT22;38101;53.126;6.878;2022-12-07T17:53:10;3.50;99.90
52103;DHT22;38101;53.126;6.878;2022-12-07T17:55:36;3.40;99.90
52103;DHT22;38101;53.126;6.878;2022-12-07T17:58:02;3.50;99.90